首页
METAR-TAF:

METAR-TAF

机场 :

South St. Paul Municipal Airport (Richard E. Fleming Field)

South St. Paul, 明尼蘇達州, 美国

纬度: 44-51-26N, 经度: 093-01-58W, 海拔: 250米

当前天气观测

该预报发布于16分钟前的07:56 UTC
风速8节,风向西
温度 2°C
湿度 100%
气压 1016 hPa
能見度: 11.3公里
阴天层高于700英尺

METAR: KSGS 030756Z AUTO 26008KT 7SM OVC007 02/02 A3000 RMK AO2 T00200018

时间: 03:12 (08:12 UTC)


TAF: 丢失

超过4000个机场的气象观测和天气预报(METAR&TAF报告)。

可查询的气象台以黄色和红色小点在地图上表示。

将鼠标移到小点上方,可查看气象台名称。

然后点击查看天气观测和预报。

如需切换地图:点击带黑十字的绿色按钮放大地图;点击带横线的绿色按钮缩小地图;或者点击绿色箭头查看邻近地区的地图。


METAR-TAF: